Terminal Aerodrome Forecast
Issued by NWS Cleveland, OH

Home | Current Version | Previous Version | Graphics & Text | Print | Product List | Glossary On
Versions: 1 2 3 4 5 6 7 8 9 10 11 12 13 14 15 16 17 18 19
906
FTUS41 KCLE 040527
TAFYNG
TAF
KYNG 040527Z 0406/0506 27012G20KT P6SM OVC025
     FM040800 26012KT P6SM OVC015
     FM041800 25010KT P6SM SCT015 OVC025
     FM050400 27005KT P6SM BKN025 OVC035=

USA.gov is the U.S. government's official web portal to all federal, state and local government web resources and services.